sensor_id;sensor_type;location;lat;lon;timestamp;P1;durP1;ratioP1;P2;durP2;ratioP2
39896;SDS011;25567;48.276;14.242;2023-05-16T00:01:00;14.88;;;7.82;;
39896;SDS011;25567;48.276;14.242;2023-05-16T00:03:27;20.33;;;8.32;;
39896;SDS011;25567;48.276;14.242;2023-05-16T00:05:56;14.43;;;7.53;;
39896;SDS011;25567;48.276;14.242;2023-05-16T00:08:23;14.73;;;7.50;;
39896;SDS011;25567;48.276;14.242;2023-05-16T00:10:49;21.23;;;8.05;;
39896;SDS011;25567;48.276;14.242;2023-05-16T00:13:16;11.27;;;7.25;;
39896;SDS011;25567;48.276;14.242;2023-05-16T00:15:47;14.38;;;7.30;;
39896;SDS011;25567;48.276;14.242;2023-05-16T00:18:13;15.23;;;7.57;;
39896;SDS011;25567;48.276;14.242;2023-05-16T00:20:42;13.98;;;7.10;;
39896;SDS011;25567;48.276;14.242;2023-05-16T00:23:08;12.43;;;6.28;;
39896;SDS011;25567;48.276;14.242;2023-05-16T00:25:35;15.93;;;7.60;;
39896;SDS011;25567;48.276;14.242;2023-05-16T00:28:01;17.13;;;7.75;;
39896;SDS011;25567;48.276;14.242;2023-05-16T00:30:28;13.30;;;6.72;;
39896;SDS011;25567;48.276;14.242;2023-05-16T00:32:54;13.10;;;7.10;;
39896;SDS011;25567;48.276;14.242;2023-05-16T00:35:21;16.00;;;7.25;;
39896;SDS011;25567;48.276;14.242;2023-05-16T00:37:49;16.02;;;6.97;;
39896;SDS011;25567;48.276;14.242;2023-05-16T00:40:15;10.15;;;6.95;;
39896;SDS011;25567;48.276;14.242;2023-05-16T00:42:42;16.02;;;7.20;;
39896;SDS011;25567;48.276;14.242;2023-05-16T00:45:09;13.93;;;7.20;;
39896;SDS011;25567;48.276;14.242;2023-05-16T00:47:35;12.10;;;6.82;;
39896;SDS011;25567;48.276;14.242;2023-05-16T00:50:02;13.18;;;7.57;;
39896;SDS011;25567;48.276;14.242;2023-05-16T00:52:29;10.45;;;6.55;;
39896;SDS011;25567;48.276;14.242;2023-05-16T00:54:57;13.38;;;7.03;;
39896;SDS011;25567;48.276;14.242;2023-05-16T00:57:23;9.30;;;6.00;;
39896;SDS011;25567;48.276;14.242;2023-05-16T00:59:50;16.88;;;6.82;;
39896;SDS011;25567;48.276;14.242;2023-05-16T01:02:17;13.23;;;7.28;;
39896;SDS011;25567;48.276;14.242;2023-05-16T01:04:43;13.95;;;6.32;;
39896;SDS011;25567;48.276;14.242;2023-05-16T01:07:10;14.10;;;6.93;;
39896;SDS011;25567;48.276;14.242;2023-05-16T01:09:37;12.05;;;7.25;;
39896;SDS011;25567;48.276;14.242;2023-05-16T01:14:51;9.82;;;6.00;;
39896;SDS011;25567;48.276;14.242;2023-05-16T01:27:40;17.55;;;6.90;;
39896;SDS011;25567;48.276;14.242;2023-05-16T01:30:17;12.98;;;6.07;;
39896;SDS011;25567;48.276;14.242;2023-05-16T01:32:44;12.18;;;6.38;;
39896;SDS011;25567;48.276;14.242;2023-05-16T01:35:11;14.18;;;7.38;;
39896;SDS011;25567;48.276;14.242;2023-05-16T01:40:35;14.63;;;7.65;;
39896;SDS011;25567;48.276;14.242;2023-05-16T01:43:04;14.15;;;7.88;;
39896;SDS011;25567;48.276;14.242;2023-05-16T01:45:34;16.50;;;8.57;;
39896;SDS011;25567;48.276;14.242;2023-05-16T01:48:06;15.75;;;8.20;;
39896;SDS011;25567;48.276;14.242;2023-05-16T01:50:34;24.98;;;8.25;;
39896;SDS011;25567;48.276;14.242;2023-05-16T01:53:02;15.55;;;7.93;;
39896;SDS011;25567;48.276;14.242;2023-05-16T01:55:41;16.63;;;7.93;;
39896;SDS011;25567;48.276;14.242;2023-05-16T01:58:09;16.40;;;8.50;;
39896;SDS011;25567;48.276;14.242;2023-05-16T02:00:36;22.27;;;9.57;;
39896;SDS011;25567;48.276;14.242;2023-05-16T02:03:03;16.48;;;8.05;;
39896;SDS011;25567;48.276;14.242;2023-05-16T02:05:30;14.93;;;8.27;;
39896;SDS011;25567;48.276;14.242;2023-05-16T02:07:57;16.15;;;7.78;;
39896;SDS011;25567;48.276;14.242;2023-05-16T02:10:24;12.57;;;7.45;;
39896;SDS011;25567;48.276;14.242;2023-05-16T02:12:50;12.57;;;6.47;;
39896;SDS011;25567;48.276;14.242;2023-05-16T02:15:17;14.43;;;7.30;;
39896;SDS011;25567;48.276;14.242;2023-05-16T02:17:44;13.65;;;7.43;;
39896;SDS011;25567;48.276;14.242;2023-05-16T02:20:11;22.05;;;9.07;;
39896;SDS011;25567;48.276;14.242;2023-05-16T02:22:38;18.52;;;8.57;;
39896;SDS011;25567;48.276;14.242;2023-05-16T02:25:05;19.40;;;8.57;;
39896;SDS011;25567;48.276;14.242;2023-05-16T02:27:31;13.77;;;8.02;;
39896;SDS011;25567;48.276;14.242;2023-05-16T02:29:58;19.13;;;9.07;;
39896;SDS011;25567;48.276;14.242;2023-05-16T02:32:24;18.80;;;9.52;;
39896;SDS011;25567;48.276;14.242;2023-05-16T02:34:51;21.27;;;8.70;;
39896;SDS011;25567;48.276;14.242;2023-05-16T02:37:18;16.50;;;9.15;;
39896;SDS011;25567;48.276;14.242;2023-05-16T02:39:44;20.58;;;9.98;;
39896;SDS011;25567;48.276;14.242;2023-05-16T02:42:11;20.52;;;9.93;;
39896;SDS011;25567;48.276;14.242;2023-05-16T02:44:37;19.73;;;9.60;;
39896;SDS011;25567;48.276;14.242;2023-05-16T02:47:04;19.08;;;9.80;;
39896;SDS011;25567;48.276;14.242;2023-05-16T02:49:30;21.13;;;9.82;;
39896;SDS011;25567;48.276;14.242;2023-05-16T02:51:57;21.33;;;9.55;;
39896;SDS011;25567;48.276;14.242;2023-05-16T02:54:23;23.55;;;11.77;;
39896;SDS011;25567;48.276;14.242;2023-05-16T02:56:50;24.38;;;11.07;;
39896;SDS011;25567;48.276;14.242;2023-05-16T02:59:16;22.85;;;10.77;;
39896;SDS011;25567;48.276;14.242;2023-05-16T03:01:43;26.58;;;12.52;;
39896;SDS011;25567;48.276;14.242;2023-05-16T03:04:09;28.90;;;12.52;;
39896;SDS011;25567;48.276;14.242;2023-05-16T03:06:36;32.05;;;13.10;;
39896;SDS011;25567;48.276;14.242;2023-05-16T03:09:02;35.72;;;14.98;;
39896;SDS011;25567;48.276;14.242;2023-05-16T03:11:29;46.20;;;15.73;;
39896;SDS011;25567;48.276;14.242;2023-05-16T03:13:55;38.58;;;17.15;;
39896;SDS011;25567;48.276;14.242;2023-05-16T03:16:27;39.20;;;16.77;;
39896;SDS011;25567;48.276;14.242;2023-05-16T03:18:53;37.80;;;16.27;;
39896;SDS011;25567;48.276;14.242;2023-05-16T03:21:20;41.70;;;19.20;;
39896;SDS011;25567;48.276;14.242;2023-05-16T03:23:46;44.95;;;17.40;;
39896;SDS011;25567;48.276;14.242;2023-05-16T03:26:13;43.28;;;18.10;;
39896;SDS011;25567;48.276;14.242;2023-05-16T03:28:39;39.92;;;17.25;;
39896;SDS011;25567;48.276;14.242;2023-05-16T03:31:06;43.25;;;17.90;;
39896;SDS011;25567;48.276;14.242;2023-05-16T03:33:32;40.53;;;16.98;;
39896;SDS011;25567;48.276;14.242;2023-05-16T03:35:58;40.17;;;16.13;;
39896;SDS011;25567;48.276;14.242;2023-05-16T03:38:25;42.45;;;16.75;;
39896;SDS011;25567;48.276;14.242;2023-05-16T03:40:51;42.03;;;16.90;;
39896;SDS011;25567;48.276;14.242;2023-05-16T03:43:18;38.25;;;17.13;;
39896;SDS011;25567;48.276;14.242;2023-05-16T03:45:44;39.67;;;17.33;;
39896;SDS011;25567;48.276;14.242;2023-05-16T03:48:11;39.40;;;16.98;;
39896;SDS011;25567;48.276;14.242;2023-05-16T03:50:37;38.88;;;16.63;;
39896;SDS011;25567;48.276;14.242;2023-05-16T03:53:06;39.28;;;16.23;;
39896;SDS011;25567;48.276;14.242;2023-05-16T03:55:33;48.97;;;18.38;;
39896;SDS011;25567;48.276;14.242;2023-05-16T03:58:00;41.10;;;17.75;;
39896;SDS011;25567;48.276;14.242;2023-05-16T04:00:26;39.45;;;17.48;;
39896;SDS011;25567;48.276;14.242;2023-05-16T04:02:53;45.47;;;18.05;;
39896;SDS011;25567;48.276;14.242;2023-05-16T04:05:19;45.22;;;18.00;;
39896;SDS011;25567;48.276;14.242;2023-05-16T04:07:46;38.20;;;16.67;;
39896;SDS011;25567;48.276;14.242;2023-05-16T04:10:13;29.40;;;14.35;;
39896;SDS011;25567;48.276;14.242;2023-05-16T04:12:39;24.48;;;11.95;;
39896;SDS011;25567;48.276;14.242;2023-05-16T04:15:06;26.58;;;12.77;;
39896;SDS011;25567;48.276;14.242;2023-05-16T04:17:33;21.23;;;11.57;;
39896;SDS011;25567;48.276;14.242;2023-05-16T04:20:02;23.45;;;10.93;;
39896;SDS011;25567;48.276;14.242;2023-05-16T04:22:30;19.73;;;10.50;;
39896;SDS011;25567;48.276;14.242;2023-05-16T04:24:56;25.90;;;12.13;;
39896;SDS011;25567;48.276;14.242;2023-05-16T04:27:23;25.42;;;13.10;;
39896;SDS011;25567;48.276;14.242;2023-05-16T04:29:50;44.08;;;14.90;;
39896;SDS011;25567;48.276;14.242;2023-05-16T04:32:17;32.85;;;14.13;;
39896;SDS011;25567;48.276;14.242;2023-05-16T04:34:43;22.42;;;11.73;;
39896;SDS011;25567;48.276;14.242;2023-05-16T04:37:11;25.27;;;12.32;;
39896;SDS011;25567;48.276;14.242;2023-05-16T04:39:38;22.65;;;11.88;;
39896;SDS011;25567;48.276;14.242;2023-05-16T04:42:04;24.33;;;11.60;;
39896;SDS011;25567;48.276;14.242;2023-05-16T04:44:31;20.08;;;10.23;;
39896;SDS011;25567;48.276;14.242;2023-05-16T04:46:58;18.52;;;9.73;;
39896;SDS011;25567;48.276;14.242;2023-05-16T04:49:24;22.98;;;10.77;;
39896;SDS011;25567;48.276;14.242;2023-05-16T04:51:51;22.30;;;11.40;;
39896;SDS011;25567;48.276;14.242;2023-05-16T04:54:17;18.92;;;9.10;;
39896;SDS011;25567;48.276;14.242;2023-05-16T04:56:44;19.25;;;10.10;;
39896;SDS011;25567;48.276;14.242;2023-05-16T04:59:10;22.20;;;11.02;;
39896;SDS011;25567;48.276;14.242;2023-05-16T05:01:37;21.25;;;11.27;;
39896;SDS011;25567;48.276;14.242;2023-05-16T05:04:05;25.25;;;11.57;;
39896;SDS011;25567;48.276;14.242;2023-05-16T05:06:31;24.25;;;11.43;;
39896;SDS011;25567;48.276;14.242;2023-05-16T05:08:58;22.33;;;10.45;;
39896;SDS011;25567;48.276;14.242;2023-05-16T05:11:24;35.08;;;13.38;;
39896;SDS011;25567;48.276;14.242;2023-05-16T05:13:52;22.17;;;12.18;;
39896;SDS011;25567;48.276;14.242;2023-05-16T05:16:18;28.02;;;12.13;;
39896;SDS011;25567;48.276;14.242;2023-05-16T05:18:45;24.40;;;12.85;;
39896;SDS011;25567;48.276;14.242;2023-05-16T05:21:11;25.80;;;12.30;;
39896;SDS011;25567;48.276;14.242;2023-05-16T05:23:38;31.02;;;13.15;;
39896;SDS011;25567;48.276;14.242;2023-05-16T05:26:05;39.55;;;13.70;;
39896;SDS011;25567;48.276;14.242;2023-05-16T05:28:31;28.13;;;12.77;;
39896;SDS011;25567;48.276;14.242;2023-05-16T05:30:58;32.22;;;13.75;;
39896;SDS011;25567;48.276;14.242;2023-05-16T05:33:27;26.58;;;13.35;;
39896;SDS011;25567;48.276;14.242;2023-05-16T05:35:54;35.00;;;14.75;;
39896;SDS011;25567;48.276;14.242;2023-05-16T05:38:21;34.45;;;15.38;;
39896;SDS011;25567;48.276;14.242;2023-05-16T05:40:47;40.30;;;15.32;;
39896;SDS011;25567;48.276;14.242;2023-05-16T05:43:14;32.75;;;15.60;;
39896;SDS011;25567;48.276;14.242;2023-05-16T05:45:41;39.33;;;16.88;;
39896;SDS011;25567;48.276;14.242;2023-05-16T05:48:07;34.38;;;16.27;;
39896;SDS011;25567;48.276;14.242;2023-05-16T05:50:34;57.20;;;16.55;;
39896;SDS011;25567;48.276;14.242;2023-05-16T05:53:01;35.47;;;16.35;;
39896;SDS011;25567;48.276;14.242;2023-05-16T05:55:27;38.78;;;16.73;;
39896;SDS011;25567;48.276;14.242;2023-05-16T05:57:54;42.42;;;17.08;;
39896;SDS011;25567;48.276;14.242;2023-05-16T06:00:20;37.17;;;16.67;;
39896;SDS011;25567;48.276;14.242;2023-05-16T06:02:47;35.97;;;15.88;;
39896;SDS011;25567;48.276;14.242;2023-05-16T06:05:14;39.53;;;16.98;;
39896;SDS011;25567;48.276;14.242;2023-05-16T06:07:40;30.80;;;15.68;;
39896;SDS011;25567;48.276;14.242;2023-05-16T06:10:08;31.90;;;15.68;;
39896;SDS011;25567;48.276;14.242;2023-05-16T06:12:34;45.85;;;16.77;;
39896;SDS011;25567;48.276;14.242;2023-05-16T06:15:01;37.15;;;17.52;;
39896;SDS011;25567;48.276;14.242;2023-05-16T06:17:28;40.42;;;16.17;;
39896;SDS011;25567;48.276;14.242;2023-05-16T06:19:54;40.88;;;16.92;;
39896;SDS011;25567;48.276;14.242;2023-05-16T06:22:21;34.33;;;16.00;;
39896;SDS011;25567;48.276;14.242;2023-05-16T06:24:47;39.80;;;18.05;;
39896;SDS011;25567;48.276;14.242;2023-05-16T06:27:13;38.80;;;18.05;;
39896;SDS011;25567;48.276;14.242;2023-05-16T06:29:40;48.65;;;21.77;;
39896;SDS011;25567;48.276;14.242;2023-05-16T06:32:06;54.40;;;23.05;;
39896;SDS011;25567;48.276;14.242;2023-05-16T06:34:34;54.65;;;23.48;;
39896;SDS011;25567;48.276;14.242;2023-05-16T06:37:01;52.13;;;22.38;;
39896;SDS011;25567;48.276;14.242;2023-05-16T06:39:29;50.00;;;22.90;;
39896;SDS011;25567;48.276;14.242;2023-05-16T06:41:55;47.95;;;23.40;;
39896;SDS011;25567;48.276;14.242;2023-05-16T06:44:22;46.70;;;22.33;;
39896;SDS011;25567;48.276;14.242;2023-05-16T06:46:49;51.25;;;22.63;;
39896;SDS011;25567;48.276;14.242;2023-05-16T06:49:15;53.03;;;22.50;;
39896;SDS011;25567;48.276;14.242;2023-05-16T06:51:42;50.67;;;23.08;;
39896;SDS011;25567;48.276;14.242;2023-05-16T06:54:08;55.50;;;22.95;;
39896;SDS011;25567;48.276;14.242;2023-05-16T06:56:35;54.63;;;23.38;;
39896;SDS011;25567;48.276;14.242;2023-05-16T06:59:01;46.10;;;20.63;;
39896;SDS011;25567;48.276;14.242;2023-05-16T07:01:28;48.13;;;21.45;;
39896;SDS011;25567;48.276;14.242;2023-05-16T07:03:54;42.45;;;20.40;;
39896;SDS011;25567;48.276;14.242;2023-05-16T07:06:21;39.78;;;18.35;;
39896;SDS011;25567;48.276;14.242;2023-05-16T07:08:47;36.65;;;18.15;;
39896;SDS011;25567;48.276;14.242;2023-05-16T07:11:14;35.90;;;17.92;;
39896;SDS011;25567;48.276;14.242;2023-05-16T07:13:40;36.70;;;17.65;;
39896;SDS011;25567;48.276;14.242;2023-05-16T07:16:07;35.40;;;16.45;;
39896;SDS011;25567;48.276;14.242;2023-05-16T07:18:34;34.17;;;17.70;;
39896;SDS011;25567;48.276;14.242;2023-05-16T07:21:00;36.10;;;17.55;;
39896;SDS011;25567;48.276;14.242;2023-05-16T07:23:27;33.60;;;17.23;;
39896;SDS011;25567;48.276;14.242;2023-05-16T07:25:53;42.83;;;19.35;;
39896;SDS011;25567;48.276;14.242;2023-05-16T07:28:20;52.45;;;22.63;;
39896;SDS011;25567;48.276;14.242;2023-05-16T07:30:47;52.50;;;22.73;;
39896;SDS011;25567;48.276;14.242;2023-05-16T07:33:13;66.47;;;25.48;;
39896;SDS011;25567;48.276;14.242;2023-05-16T07:35:40;86.38;;;32.88;;
39896;SDS011;25567;48.276;14.242;2023-05-16T07:38:07;99.78;;;33.33;;
39896;SDS011;25567;48.276;14.242;2023-05-16T07:40:34;102.60;;;32.85;;
39896;SDS011;25567;48.276;14.242;2023-05-16T07:43:00;90.55;;;32.45;;
39896;SDS011;25567;48.276;14.242;2023-05-16T07:45:28;81.30;;;31.25;;
39896;SDS011;25567;48.276;14.242;2023-05-16T07:47:55;81.05;;;31.55;;
39896;SDS011;25567;48.276;14.242;2023-05-16T07:50:22;83.28;;;31.02;;
39896;SDS011;25567;48.276;14.242;2023-05-16T07:52:48;75.72;;;31.33;;
39896;SDS011;25567;48.276;14.242;2023-05-16T07:55:15;90.55;;;31.33;;
39896;SDS011;25567;48.276;14.242;2023-05-16T07:57:42;79.57;;;30.58;;
39896;SDS011;25567;48.276;14.242;2023-05-16T08:00:09;77.18;;;30.15;;
39896;SDS011;25567;48.276;14.242;2023-05-16T08:02:35;70.57;;;27.50;;
39896;SDS011;25567;48.276;14.242;2023-05-16T08:05:02;70.18;;;28.83;;
39896;SDS011;25567;48.276;14.242;2023-05-16T08:07:29;71.97;;;29.95;;
39896;SDS011;25567;48.276;14.242;2023-05-16T08:09:58;60.28;;;25.17;;
39896;SDS011;25567;48.276;14.242;2023-05-16T08:12:24;55.80;;;22.48;;
39896;SDS011;25567;48.276;14.242;2023-05-16T08:14:52;49.78;;;23.05;;
39896;SDS011;25567;48.276;14.242;2023-05-16T08:17:19;45.65;;;21.10;;
39896;SDS011;25567;48.276;14.242;2023-05-16T08:19:45;48.10;;;22.58;;
39896;SDS011;25567;48.276;14.242;2023-05-16T08:22:12;47.33;;;22.80;;
39896;SDS011;25567;48.276;14.242;2023-05-16T08:24:38;50.78;;;22.67;;
39896;SDS011;25567;48.276;14.242;2023-05-16T08:27:05;35.97;;;18.85;;
39896;SDS011;25567;48.276;14.242;2023-05-16T08:29:31;30.08;;;15.43;;
39896;SDS011;25567;48.276;14.242;2023-05-16T08:31:58;34.28;;;17.90;;
39896;SDS011;25567;48.276;14.242;2023-05-16T08:34:25;32.75;;;17.02;;
39896;SDS011;25567;48.276;14.242;2023-05-16T08:36:51;30.70;;;17.00;;
39896;SDS011;25567;48.276;14.242;2023-05-16T08:39:19;27.10;;;15.70;;
39896;SDS011;25567;48.276;14.242;2023-05-16T08:41:46;30.35;;;15.93;;
39896;SDS011;25567;48.276;14.242;2023-05-16T08:44:13;32.38;;;16.70;;
39896;SDS011;25567;48.276;14.242;2023-05-16T08:46:49;27.70;;;15.85;;
39896;SDS011;25567;48.276;14.242;2023-05-16T08:49:17;32.20;;;15.70;;
39896;SDS011;25567;48.276;14.242;2023-05-16T08:51:45;27.88;;;15.63;;
39896;SDS011;25567;48.276;14.242;2023-05-16T08:54:12;30.73;;;15.75;;
39896;SDS011;25567;48.276;14.242;2023-05-16T08:56:40;30.60;;;16.40;;
39896;SDS011;25567;48.276;14.242;2023-05-16T08:59:06;29.73;;;15.98;;
39896;SDS011;25567;48.276;14.242;2023-05-16T09:01:33;29.80;;;16.27;;
39896;SDS011;25567;48.276;14.242;2023-05-16T09:04:00;31.83;;;16.23;;
39896;SDS011;25567;48.276;14.242;2023-05-16T09:06:27;29.23;;;16.83;;
39896;SDS011;25567;48.276;14.242;2023-05-16T09:08:53;37.00;;;17.63;;
39896;SDS011;25567;48.276;14.242;2023-05-16T09:11:20;34.72;;;18.23;;
39896;SDS011;25567;48.276;14.242;2023-05-16T09:13:48;36.53;;;19.02;;
39896;SDS011;25567;48.276;14.242;2023-05-16T09:16:16;51.70;;;23.27;;
39896;SDS011;25567;48.276;14.242;2023-05-16T09:18:43;49.28;;;22.85;;
39896;SDS011;25567;48.276;14.242;2023-05-16T09:21:10;56.47;;;24.60;;
39896;SDS011;25567;48.276;14.242;2023-05-16T09:23:38;57.85;;;24.75;;
39896;SDS011;25567;48.276;14.242;2023-05-16T09:26:04;62.13;;;25.90;;
39896;SDS011;25567;48.276;14.242;2023-05-16T09:28:33;64.97;;;24.48;;
39896;SDS011;25567;48.276;14.242;2023-05-16T09:31:02;54.50;;;25.10;;
39896;SDS011;25567;48.276;14.242;2023-05-16T09:33:29;64.60;;;25.95;;
39896;SDS011;25567;48.276;14.242;2023-05-16T09:35:56;64.57;;;27.55;;
39896;SDS011;25567;48.276;14.242;2023-05-16T09:38:23;73.25;;;28.52;;
39896;SDS011;25567;48.276;14.242;2023-05-16T09:40:50;80.65;;;29.23;;
39896;SDS011;25567;48.276;14.242;2023-05-16T09:43:19;81.68;;;28.67;;
39896;SDS011;25567;48.276;14.242;2023-05-16T09:45:47;77.97;;;29.48;;
39896;SDS011;25567;48.276;14.242;2023-05-16T09:48:14;78.15;;;28.85;;
39896;SDS011;25567;48.276;14.242;2023-05-16T09:50:45;79.65;;;27.92;;
39896;SDS011;25567;48.276;14.242;2023-05-16T09:53:12;82.80;;;28.75;;
39896;SDS011;25567;48.276;14.242;2023-05-16T09:55:39;75.53;;;27.92;;
39896;SDS011;25567;48.276;14.242;2023-05-16T09:58:05;71.55;;;27.48;;
39896;SDS011;25567;48.276;14.242;2023-05-16T10:00:32;71.50;;;27.48;;
39896;SDS011;25567;48.276;14.242;2023-05-16T10:03:00;73.38;;;29.05;;
39896;SDS011;25567;48.276;14.242;2023-05-16T10:05:30;68.03;;;26.80;;
39896;SDS011;25567;48.276;14.242;2023-05-16T10:07:57;60.22;;;24.48;;
39896;SDS011;25567;48.276;14.242;2023-05-16T10:10:24;59.42;;;24.00;;
39896;SDS011;25567;48.276;14.242;2023-05-16T10:12:50;66.20;;;25.35;;
39896;SDS011;25567;48.276;14.242;2023-05-16T10:15:18;62.25;;;25.00;;
39896;SDS011;25567;48.276;14.242;2023-05-16T10:17:44;62.88;;;24.75;;
39896;SDS011;25567;48.276;14.242;2023-05-16T10:20:14;58.38;;;23.33;;
39896;SDS011;25567;48.276;14.242;2023-05-16T10:22:44;62.55;;;24.48;;
39896;SDS011;25567;48.276;14.242;2023-05-16T10:25:26;53.20;;;24.00;;
39896;SDS011;25567;48.276;14.242;2023-05-16T10:27:55;52.60;;;21.65;;
39896;SDS011;25567;48.276;14.242;2023-05-16T10:30:21;47.95;;;21.42;;
39896;SDS011;25567;48.276;14.242;2023-05-16T10:32:48;50.88;;;22.15;;
39896;SDS011;25567;48.276;14.242;2023-05-16T10:35:15;47.53;;;21.20;;
39896;SDS011;25567;48.276;14.242;2023-05-16T10:37:41;43.70;;;21.02;;
39896;SDS011;25567;48.276;14.242;2023-05-16T10:40:08;52.45;;;22.20;;
39896;SDS011;25567;48.276;14.242;2023-05-16T10:42:35;47.97;;;22.10;;
39896;SDS011;25567;48.276;14.242;2023-05-16T10:45:08;45.90;;;20.55;;
39896;SDS011;25567;48.276;14.242;2023-05-16T10:47:42;50.40;;;20.77;;
39896;SDS011;25567;48.276;14.242;2023-05-16T10:50:29;38.50;;;19.70;;
39896;SDS011;25567;48.276;14.242;2023-05-16T10:53:09;39.30;;;19.55;;
39896;SDS011;25567;48.276;14.242;2023-05-16T10:55:39;39.92;;;19.63;;
39896;SDS011;25567;48.276;14.242;2023-05-16T10:58:09;36.28;;;18.77;;
39896;SDS011;25567;48.276;14.242;2023-05-16T11:00:36;39.60;;;18.52;;
39896;SDS011;25567;48.276;14.242;2023-05-16T11:03:04;37.45;;;18.80;;
39896;SDS011;25567;48.276;14.242;2023-05-16T11:05:32;36.63;;;18.88;;
39896;SDS011;25567;48.276;14.242;2023-05-16T11:08:03;36.35;;;18.30;;
39896;SDS011;25567;48.276;14.242;2023-05-16T11:10:30;37.85;;;18.60;;
39896;SDS011;25567;48.276;14.242;2023-05-16T11:13:01;41.35;;;18.98;;
39896;SDS011;25567;48.276;14.242;2023-05-16T11:15:31;36.83;;;19.52;;
39896;SDS011;25567;48.276;14.242;2023-05-16T11:18:24;38.85;;;18.83;;
39896;SDS011;25567;48.276;14.242;2023-05-16T11:20:50;33.67;;;18.92;;
39896;SDS011;25567;48.276;14.242;2023-05-16T11:23:23;48.92;;;21.13;;
39896;SDS011;25567;48.276;14.242;2023-05-16T11:25:57;43.58;;;21.70;;
39896;SDS011;25567;48.276;14.242;2023-05-16T11:28:24;46.80;;;24.05;;
39896;SDS011;25567;48.276;14.242;2023-05-16T11:30:51;45.42;;;24.48;;
39896;SDS011;25567;48.276;14.242;2023-05-16T11:33:20;48.80;;;25.38;;
39896;SDS011;25567;48.276;14.242;2023-05-16T11:35:59;52.42;;;24.95;;
39896;SDS011;25567;48.276;14.242;2023-05-16T11:38:41;52.28;;;27.15;;
39896;SDS011;25567;48.276;14.242;2023-05-16T11:41:09;57.10;;;28.20;;
39896;SDS011;25567;48.276;14.242;2023-05-16T11:43:36;56.72;;;26.27;;
39896;SDS011;25567;48.276;14.242;2023-05-16T11:46:03;57.20;;;26.98;;
39896;SDS011;25567;48.276;14.242;2023-05-16T11:48:30;60.35;;;26.60;;
39896;SDS011;25567;48.276;14.242;2023-05-16T11:51:02;60.78;;;28.50;;
39896;SDS011;25567;48.276;14.242;2023-05-16T11:53:28;66.28;;;29.60;;
39896;SDS011;25567;48.276;14.242;2023-05-16T11:55:55;60.28;;;28.60;;
39896;SDS011;25567;48.276;14.242;2023-05-16T11:58:22;64.18;;;28.98;;
39896;SDS011;25567;48.276;14.242;2023-05-16T12:00:49;61.10;;;30.83;;
39896;SDS011;25567;48.276;14.242;2023-05-16T12:03:16;63.70;;;29.38;;
39896;SDS011;25567;48.276;14.242;2023-05-16T12:05:50;65.57;;;29.92;;
39896;SDS011;25567;48.276;14.242;2023-05-16T12:08:19;69.65;;;30.80;;
39896;SDS011;25567;48.276;14.242;2023-05-16T12:10:50;71.88;;;32.00;;
39896;SDS011;25567;48.276;14.242;2023-05-16T12:13:17;64.82;;;30.20;;
39896;SDS011;25567;48.276;14.242;2023-05-16T12:15:46;67.57;;;32.10;;
39896;SDS011;25567;48.276;14.242;2023-05-16T12:18:12;66.30;;;31.42;;
39896;SDS011;25567;48.276;14.242;2023-05-16T12:20:39;61.00;;;31.20;;
39896;SDS011;25567;48.276;14.242;2023-05-16T12:23:09;67.10;;;30.48;;
39896;SDS011;25567;48.276;14.242;2023-05-16T12:25:36;60.88;;;31.48;;
39896;SDS011;25567;48.276;14.242;2023-05-16T12:28:07;69.63;;;32.47;;
39896;SDS011;25567;48.276;14.242;2023-05-16T12:30:33;65.50;;;30.85;;
39896;SDS011;25567;48.276;14.242;2023-05-16T12:33:01;72.15;;;33.67;;
39896;SDS011;25567;48.276;14.242;2023-05-16T12:35:33;62.35;;;31.83;;
39896;SDS011;25567;48.276;14.242;2023-05-16T12:38:03;59.10;;;30.02;;
39896;SDS011;25567;48.276;14.242;2023-05-16T12:40:30;59.38;;;29.33;;
39896;SDS011;25567;48.276;14.242;2023-05-16T12:42:56;44.28;;;24.80;;
39896;SDS011;25567;48.276;14.242;2023-05-16T12:45:24;43.20;;;22.58;;
39896;SDS011;25567;48.276;14.242;2023-05-16T12:47:52;44.97;;;23.88;;
39896;SDS011;25567;48.276;14.242;2023-05-16T12:50:19;44.63;;;24.73;;
39896;SDS011;25567;48.276;14.242;2023-05-16T12:52:49;51.78;;;25.17;;
39896;SDS011;25567;48.276;14.242;2023-05-16T12:55:16;47.28;;;24.92;;
39896;SDS011;25567;48.276;14.242;2023-05-16T12:57:43;60.42;;;26.58;;
39896;SDS011;25567;48.276;14.242;2023-05-16T13:00:11;40.42;;;20.90;;
39896;SDS011;25567;48.276;14.242;2023-05-16T13:02:37;32.20;;;18.52;;
39896;SDS011;25567;48.276;14.242;2023-05-16T13:05:04;25.88;;;15.57;;
39896;SDS011;25567;48.276;14.242;2023-05-16T13:07:36;27.70;;;14.82;;
39896;SDS011;25567;48.276;14.242;2023-05-16T13:10:02;24.83;;;15.15;;
39896;SDS011;25567;48.276;14.242;2023-05-16T13:12:29;23.48;;;14.32;;
39896;SDS011;25567;48.276;14.242;2023-05-16T13:14:56;25.65;;;15.35;;
39896;SDS011;25567;48.276;14.242;2023-05-16T13:17:22;26.90;;;16.45;;
39896;SDS011;25567;48.276;14.242;2023-05-16T13:19:49;23.25;;;14.25;;
39896;SDS011;25567;48.276;14.242;2023-05-16T13:22:16;25.08;;;15.15;;
39896;SDS011;25567;48.276;14.242;2023-05-16T13:24:43;26.80;;;15.38;;
39896;SDS011;25567;48.276;14.242;2023-05-16T13:27:09;28.42;;;15.68;;
39896;SDS011;25567;48.276;14.242;2023-05-16T13:29:36;26.50;;;15.85;;
39896;SDS011;25567;48.276;14.242;2023-05-16T13:32:02;27.42;;;16.58;;
39896;SDS011;25567;48.276;14.242;2023-05-16T13:34:29;29.08;;;18.25;;
39896;SDS011;25567;48.276;14.242;2023-05-16T13:36:57;28.92;;;16.52;;
39896;SDS011;25567;48.276;14.242;2023-05-16T13:39:24;28.17;;;16.30;;
39896;SDS011;25567;48.276;14.242;2023-05-16T13:41:50;26.00;;;16.05;;
39896;SDS011;25567;48.276;14.242;2023-05-16T13:44:17;27.83;;;17.55;;
39896;SDS011;25567;48.276;14.242;2023-05-16T13:46:43;29.52;;;17.23;;
39896;SDS011;25567;48.276;14.242;2023-05-16T13:49:10;33.03;;;17.40;;
39896;SDS011;25567;48.276;14.242;2023-05-16T13:51:37;31.85;;;17.70;;
39896;SDS011;25567;48.276;14.242;2023-05-16T13:54:03;28.45;;;17.95;;
39896;SDS011;25567;48.276;14.242;2023-05-16T13:56:30;31.10;;;18.95;;
39896;SDS011;25567;48.276;14.242;2023-05-16T13:58:56;34.03;;;19.85;;
39896;SDS011;25567;48.276;14.242;2023-05-16T14:01:31;38.92;;;20.45;;
39896;SDS011;25567;48.276;14.242;2023-05-16T14:03:58;38.20;;;20.85;;
39896;SDS011;25567;48.276;14.242;2023-05-16T14:06:24;31.40;;;18.85;;
39896;SDS011;25567;48.276;14.242;2023-05-16T14:08:54;29.98;;;18.92;;
39896;SDS011;25567;48.276;14.242;2023-05-16T14:11:21;30.70;;;18.38;;
39896;SDS011;25567;48.276;14.242;2023-05-16T14:13:54;33.78;;;19.52;;
39896;SDS011;25567;48.276;14.242;2023-05-16T14:16:21;34.70;;;20.10;;
39896;SDS011;25567;48.276;14.242;2023-05-16T14:18:48;37.38;;;20.70;;
39896;SDS011;25567;48.276;14.242;2023-05-16T14:21:14;38.03;;;22.10;;
39896;SDS011;25567;48.276;14.242;2023-05-16T14:23:41;38.75;;;22.75;;
39896;SDS011;25567;48.276;14.242;2023-05-16T14:26:07;40.03;;;22.15;;
39896;SDS011;25567;48.276;14.242;2023-05-16T14:28:34;36.05;;;20.80;;